sensor_id;sensor_type;location;lat;lon;timestamp;P1;durP1;ratioP1;P2;durP2;ratioP2
51384;SDS011;37478;55.682;37.462;2024-02-23T00:02:14;51.25;;;21.08;;
51384;SDS011;37478;55.682;37.462;2024-02-23T00:04:40;58.92;;;21.52;;
51384;SDS011;37478;55.682;37.462;2024-02-23T00:07:05;45.45;;;19.75;;
51384;SDS011;37478;55.682;37.462;2024-02-23T00:09:30;47.20;;;20.98;;
51384;SDS011;37478;55.682;37.462;2024-02-23T00:11:56;53.00;;;22.70;;
51384;SDS011;37478;55.682;37.462;2024-02-23T00:14:21;44.65;;;18.65;;
51384;SDS011;37478;55.682;37.462;2024-02-23T00:16:47;53.50;;;20.15;;
51384;SDS011;37478;55.682;37.462;2024-02-23T00:19:13;53.00;;;22.20;;
51384;SDS011;37478;55.682;37.462;2024-02-23T00:21:38;49.70;;;19.40;;
51384;SDS011;37478;55.682;37.462;2024-02-23T00:24:04;43.30;;;20.45;;
51384;SDS011;37478;55.682;37.462;2024-02-23T00:26:30;50.15;;;21.35;;
51384;SDS011;37478;55.682;37.462;2024-02-23T00:28:55;51.60;;;22.52;;
51384;SDS011;37478;55.682;37.462;2024-02-23T00:31:21;49.10;;;21.55;;
51384;SDS011;37478;55.682;37.462;2024-02-23T00:33:46;41.55;;;18.13;;
51384;SDS011;37478;55.682;37.462;2024-02-23T00:36:12;41.35;;;17.95;;
51384;SDS011;37478;55.682;37.462;2024-02-23T00:38:37;47.80;;;20.58;;
51384;SDS011;37478;55.682;37.462;2024-02-23T00:41:03;47.88;;;20.88;;
51384;SDS011;37478;55.682;37.462;2024-02-23T00:43:28;54.47;;;21.60;;
51384;SDS011;37478;55.682;37.462;2024-02-23T00:45:54;40.30;;;19.13;;
51384;SDS011;37478;55.682;37.462;2024-02-23T00:48:20;51.28;;;21.80;;
51384;SDS011;37478;55.682;37.462;2024-02-23T00:50:45;49.03;;;20.05;;
51384;SDS011;37478;55.682;37.462;2024-02-23T00:53:10;47.13;;;19.00;;
51384;SDS011;37478;55.682;37.462;2024-02-23T00:55:36;45.80;;;19.00;;
51384;SDS011;37478;55.682;37.462;2024-02-23T00:58:01;44.60;;;17.73;;
51384;SDS011;37478;55.682;37.462;2024-02-23T01:00:28;42.95;;;18.23;;
51384;SDS011;37478;55.682;37.462;2024-02-23T01:02:54;49.80;;;20.77;;
51384;SDS011;37478;55.682;37.462;2024-02-23T01:05:19;45.22;;;20.95;;
51384;SDS011;37478;55.682;37.462;2024-02-23T01:07:45;46.33;;;19.48;;
51384;SDS011;37478;55.682;37.462;2024-02-23T01:10:10;41.65;;;20.15;;
51384;SDS011;37478;55.682;37.462;2024-02-23T01:12:35;46.10;;;19.17;;
51384;SDS011;37478;55.682;37.462;2024-02-23T01:15:01;41.40;;;17.48;;
51384;SDS011;37478;55.682;37.462;2024-02-23T01:17:26;45.15;;;17.58;;
51384;SDS011;37478;55.682;37.462;2024-02-23T01:19:51;45.08;;;19.00;;
51384;SDS011;37478;55.682;37.462;2024-02-23T01:22:17;35.70;;;18.20;;
51384;SDS011;37478;55.682;37.462;2024-02-23T01:24:42;36.92;;;18.73;;
51384;SDS011;37478;55.682;37.462;2024-02-23T01:27:08;42.22;;;16.38;;
51384;SDS011;37478;55.682;37.462;2024-02-23T01:29:33;40.90;;;17.23;;
51384;SDS011;37478;55.682;37.462;2024-02-23T01:31:59;38.30;;;18.73;;
51384;SDS011;37478;55.682;37.462;2024-02-23T01:34:24;42.40;;;18.77;;
51384;SDS011;37478;55.682;37.462;2024-02-23T01:36:50;43.88;;;18.13;;
51384;SDS011;37478;55.682;37.462;2024-02-23T01:39:15;44.13;;;19.88;;
51384;SDS011;37478;55.682;37.462;2024-02-23T01:41:40;41.00;;;17.02;;
51384;SDS011;37478;55.682;37.462;2024-02-23T01:44:07;44.55;;;21.10;;
51384;SDS011;37478;55.682;37.462;2024-02-23T01:46:33;51.25;;;20.40;;
51384;SDS011;37478;55.682;37.462;2024-02-23T01:48:58;51.65;;;21.27;;
51384;SDS011;37478;55.682;37.462;2024-02-23T01:51:24;45.40;;;18.95;;
51384;SDS011;37478;55.682;37.462;2024-02-23T01:53:50;46.55;;;20.55;;
51384;SDS011;37478;55.682;37.462;2024-02-23T01:56:15;48.42;;;19.85;;
51384;SDS011;37478;55.682;37.462;2024-02-23T01:58:45;48.50;;;18.52;;
51384;SDS011;37478;55.682;37.462;2024-02-23T02:01:10;45.50;;;19.30;;
51384;SDS011;37478;55.682;37.462;2024-02-23T02:03:37;41.72;;;18.45;;
51384;SDS011;37478;55.682;37.462;2024-02-23T02:06:03;42.25;;;17.50;;
51384;SDS011;37478;55.682;37.462;2024-02-23T02:08:29;46.97;;;19.52;;
51384;SDS011;37478;55.682;37.462;2024-02-23T02:10:54;43.40;;;19.00;;
51384;SDS011;37478;55.682;37.462;2024-02-23T02:13:22;42.97;;;21.08;;
51384;SDS011;37478;55.682;37.462;2024-02-23T02:15:47;45.25;;;19.35;;
51384;SDS011;37478;55.682;37.462;2024-02-23T02:18:12;46.40;;;19.20;;
51384;SDS011;37478;55.682;37.462;2024-02-23T02:20:38;47.90;;;20.08;;
51384;SDS011;37478;55.682;37.462;2024-02-23T02:23:06;51.28;;;21.50;;
51384;SDS011;37478;55.682;37.462;2024-02-23T02:25:32;52.50;;;20.40;;
51384;SDS011;37478;55.682;37.462;2024-02-23T02:27:57;46.53;;;19.48;;
51384;SDS011;37478;55.682;37.462;2024-02-23T02:30:23;46.47;;;19.08;;
51384;SDS011;37478;55.682;37.462;2024-02-23T02:32:48;54.05;;;20.20;;
51384;SDS011;37478;55.682;37.462;2024-02-23T02:35:13;50.83;;;19.55;;
51384;SDS011;37478;55.682;37.462;2024-02-23T02:37:39;41.45;;;16.83;;
51384;SDS011;37478;55.682;37.462;2024-02-23T02:40:04;55.15;;;20.00;;
51384;SDS011;37478;55.682;37.462;2024-02-23T02:42:30;47.22;;;20.05;;
51384;SDS011;37478;55.682;37.462;2024-02-23T02:44:56;56.97;;;24.23;;
51384;SDS011;37478;55.682;37.462;2024-02-23T02:47:21;47.47;;;18.73;;
51384;SDS011;37478;55.682;37.462;2024-02-23T02:49:46;52.90;;;20.00;;
51384;SDS011;37478;55.682;37.462;2024-02-23T02:52:22;49.63;;;20.33;;
51384;SDS011;37478;55.682;37.462;2024-02-23T02:54:48;50.03;;;18.90;;
51384;SDS011;37478;55.682;37.462;2024-02-23T02:57:14;45.92;;;19.60;;
51384;SDS011;37478;55.682;37.462;2024-02-23T02:59:39;44.92;;;21.02;;
51384;SDS011;37478;55.682;37.462;2024-02-23T03:02:05;40.08;;;17.75;;
51384;SDS011;37478;55.682;37.462;2024-02-23T03:04:30;41.97;;;17.52;;
51384;SDS011;37478;55.682;37.462;2024-02-23T03:06:55;49.35;;;19.63;;
51384;SDS011;37478;55.682;37.462;2024-02-23T03:09:21;36.05;;;18.05;;
51384;SDS011;37478;55.682;37.462;2024-02-23T03:11:46;46.50;;;19.33;;
51384;SDS011;37478;55.682;37.462;2024-02-23T03:14:11;50.70;;;20.75;;
51384;SDS011;37478;55.682;37.462;2024-02-23T03:16:37;37.78;;;16.92;;
51384;SDS011;37478;55.682;37.462;2024-02-23T03:19:03;42.40;;;18.48;;
51384;SDS011;37478;55.682;37.462;2024-02-23T03:21:28;48.90;;;21.25;;
51384;SDS011;37478;55.682;37.462;2024-02-23T03:23:54;48.28;;;19.98;;
51384;SDS011;37478;55.682;37.462;2024-02-23T03:26:19;42.55;;;18.70;;
51384;SDS011;37478;55.682;37.462;2024-02-23T03:28:45;49.90;;;19.52;;
51384;SDS011;37478;55.682;37.462;2024-02-23T03:31:10;38.92;;;15.73;;
51384;SDS011;37478;55.682;37.462;2024-02-23T03:33:36;50.35;;;20.67;;
51384;SDS011;37478;55.682;37.462;2024-02-23T03:36:02;50.42;;;20.95;;
51384;SDS011;37478;55.682;37.462;2024-02-23T03:38:28;45.15;;;17.27;;
51384;SDS011;37478;55.682;37.462;2024-02-23T03:40:55;48.35;;;19.08;;
51384;SDS011;37478;55.682;37.462;2024-02-23T03:43:20;48.00;;;19.45;;
51384;SDS011;37478;55.682;37.462;2024-02-23T03:45:46;44.00;;;16.27;;
51384;SDS011;37478;55.682;37.462;2024-02-23T03:48:11;58.35;;;20.00;;
51384;SDS011;37478;55.682;37.462;2024-02-23T03:50:37;46.50;;;18.20;;
51384;SDS011;37478;55.682;37.462;2024-02-23T03:53:02;53.08;;;19.13;;
51384;SDS011;37478;55.682;37.462;2024-02-23T03:55:28;46.70;;;17.67;;
51384;SDS011;37478;55.682;37.462;2024-02-23T03:57:54;47.75;;;18.63;;
51384;SDS011;37478;55.682;37.462;2024-02-23T04:00:19;51.35;;;20.08;;
51384;SDS011;37478;55.682;37.462;2024-02-23T04:02:49;49.92;;;18.55;;
51384;SDS011;37478;55.682;37.462;2024-02-23T04:05:17;65.55;;;21.42;;
51384;SDS011;37478;55.682;37.462;2024-02-23T04:07:44;45.15;;;18.30;;
51384;SDS011;37478;55.682;37.462;2024-02-23T04:10:09;44.70;;;19.48;;
51384;SDS011;37478;55.682;37.462;2024-02-23T04:12:40;49.88;;;20.60;;
51384;SDS011;37478;55.682;37.462;2024-02-23T04:15:12;57.20;;;22.25;;
51384;SDS011;37478;55.682;37.462;2024-02-23T04:17:37;48.38;;;20.70;;
51384;SDS011;37478;55.682;37.462;2024-02-23T04:20:05;51.65;;;22.08;;
51384;SDS011;37478;55.682;37.462;2024-02-23T04:22:30;53.72;;;18.48;;
51384;SDS011;37478;55.682;37.462;2024-02-23T04:24:56;53.78;;;20.80;;
51384;SDS011;37478;55.682;37.462;2024-02-23T04:27:21;62.75;;;18.98;;
51384;SDS011;37478;55.682;37.462;2024-02-23T04:29:46;51.58;;;20.25;;
51384;SDS011;37478;55.682;37.462;2024-02-23T04:32:12;49.95;;;20.13;;
51384;SDS011;37478;55.682;37.462;2024-02-23T04:34:37;53.75;;;20.58;;
51384;SDS011;37478;55.682;37.462;2024-02-23T04:37:04;52.90;;;19.35;;
51384;SDS011;37478;55.682;37.462;2024-02-23T04:39:30;53.35;;;22.90;;
51384;SDS011;37478;55.682;37.462;2024-02-23T04:41:55;60.38;;;21.25;;
51384;SDS011;37478;55.682;37.462;2024-02-23T04:44:20;39.78;;;17.73;;
51384;SDS011;37478;55.682;37.462;2024-02-23T04:46:46;53.25;;;20.02;;
51384;SDS011;37478;55.682;37.462;2024-02-23T04:49:11;55.10;;;19.02;;
51384;SDS011;37478;55.682;37.462;2024-02-23T04:51:37;47.30;;;19.33;;
51384;SDS011;37478;55.682;37.462;2024-02-23T04:54:02;54.38;;;21.25;;
51384;SDS011;37478;55.682;37.462;2024-02-23T04:56:28;60.65;;;21.73;;
51384;SDS011;37478;55.682;37.462;2024-02-23T04:58:53;61.00;;;22.40;;
51384;SDS011;37478;55.682;37.462;2024-02-23T05:01:19;49.97;;;20.25;;
51384;SDS011;37478;55.682;37.462;2024-02-23T05:03:44;63.42;;;19.42;;
51384;SDS011;37478;55.682;37.462;2024-02-23T05:06:10;54.55;;;20.15;;
51384;SDS011;37478;55.682;37.462;2024-02-23T05:08:35;52.97;;;19.40;;
51384;SDS011;37478;55.682;37.462;2024-02-23T05:11:01;56.38;;;21.52;;
51384;SDS011;37478;55.682;37.462;2024-02-23T05:13:26;61.97;;;20.02;;
51384;SDS011;37478;55.682;37.462;2024-02-23T05:15:51;54.90;;;21.50;;
51384;SDS011;37478;55.682;37.462;2024-02-23T05:18:16;49.95;;;18.98;;
51384;SDS011;37478;55.682;37.462;2024-02-23T05:20:42;58.30;;;20.30;;
51384;SDS011;37478;55.682;37.462;2024-02-23T05:23:07;55.05;;;21.00;;
51384;SDS011;37478;55.682;37.462;2024-02-23T05:25:33;55.97;;;21.13;;
51384;SDS011;37478;55.682;37.462;2024-02-23T05:27:58;51.65;;;22.10;;
51384;SDS011;37478;55.682;37.462;2024-02-23T05:30:23;58.92;;;20.42;;
51384;SDS011;37478;55.682;37.462;2024-02-23T05:32:50;57.50;;;20.15;;
51384;SDS011;37478;55.682;37.462;2024-02-23T05:35:15;59.55;;;19.52;;
51384;SDS011;37478;55.682;37.462;2024-02-23T05:37:41;47.38;;;19.05;;
51384;SDS011;37478;55.682;37.462;2024-02-23T05:40:06;52.83;;;19.67;;
51384;SDS011;37478;55.682;37.462;2024-02-23T05:42:37;64.60;;;20.50;;
51384;SDS011;37478;55.682;37.462;2024-02-23T05:45:03;61.28;;;21.67;;
51384;SDS011;37478;55.682;37.462;2024-02-23T05:47:30;55.25;;;21.90;;
51384;SDS011;37478;55.682;37.462;2024-02-23T05:49:55;57.90;;;21.95;;
51384;SDS011;37478;55.682;37.462;2024-02-23T05:52:20;63.33;;;23.25;;
51384;SDS011;37478;55.682;37.462;2024-02-23T05:54:46;67.15;;;22.92;;
51384;SDS011;37478;55.682;37.462;2024-02-23T05:57:11;53.13;;;20.00;;
51384;SDS011;37478;55.682;37.462;2024-02-23T05:59:36;52.67;;;20.13;;
51384;SDS011;37478;55.682;37.462;2024-02-23T06:02:02;56.83;;;21.05;;
51384;SDS011;37478;55.682;37.462;2024-02-23T06:04:27;53.95;;;20.55;;
51384;SDS011;37478;55.682;37.462;2024-02-23T06:06:53;56.85;;;20.67;;
51384;SDS011;37478;55.682;37.462;2024-02-23T06:09:18;56.03;;;21.20;;
51384;SDS011;37478;55.682;37.462;2024-02-23T06:11:44;50.28;;;20.95;;
51384;SDS011;37478;55.682;37.462;2024-02-23T06:14:09;53.88;;;21.90;;
51384;SDS011;37478;55.682;37.462;2024-02-23T06:16:35;62.30;;;23.60;;
51384;SDS011;37478;55.682;37.462;2024-02-23T06:19:00;67.53;;;22.27;;
51384;SDS011;37478;55.682;37.462;2024-02-23T06:21:29;56.97;;;21.92;;
51384;SDS011;37478;55.682;37.462;2024-02-23T06:23:55;64.70;;;21.70;;
51384;SDS011;37478;55.682;37.462;2024-02-23T06:26:20;54.97;;;21.65;;
51384;SDS011;37478;55.682;37.462;2024-02-23T06:28:46;62.45;;;20.85;;
51384;SDS011;37478;55.682;37.462;2024-02-23T06:31:12;53.75;;;21.45;;
51384;SDS011;37478;55.682;37.462;2024-02-23T06:33:37;56.15;;;21.80;;
51384;SDS011;37478;55.682;37.462;2024-02-23T06:36:03;60.13;;;22.42;;
51384;SDS011;37478;55.682;37.462;2024-02-23T06:38:29;52.60;;;20.73;;
51384;SDS011;37478;55.682;37.462;2024-02-23T06:40:54;52.95;;;19.63;;
51384;SDS011;37478;55.682;37.462;2024-02-23T06:43:21;62.63;;;24.30;;
51384;SDS011;37478;55.682;37.462;2024-02-23T06:45:46;54.00;;;21.00;;
51384;SDS011;37478;55.682;37.462;2024-02-23T06:48:12;53.20;;;21.33;;
51384;SDS011;37478;55.682;37.462;2024-02-23T06:50:37;51.55;;;19.63;;
51384;SDS011;37478;55.682;37.462;2024-02-23T06:53:02;55.67;;;22.90;;
51384;SDS011;37478;55.682;37.462;2024-02-23T06:55:28;45.53;;;20.80;;
51384;SDS011;37478;55.682;37.462;2024-02-23T06:57:56;50.00;;;21.42;;
51384;SDS011;37478;55.682;37.462;2024-02-23T07:00:21;47.33;;;17.88;;
51384;SDS011;37478;55.682;37.462;2024-02-23T07:02:47;53.10;;;21.67;;
51384;SDS011;37478;55.682;37.462;2024-02-23T07:05:12;51.53;;;20.13;;
51384;SDS011;37478;55.682;37.462;2024-02-23T07:07:39;51.83;;;22.80;;
51384;SDS011;37478;55.682;37.462;2024-02-23T07:10:05;45.72;;;18.98;;
51384;SDS011;37478;55.682;37.462;2024-02-23T07:12:31;51.25;;;19.92;;
51384;SDS011;37478;55.682;37.462;2024-02-23T07:14:59;56.90;;;20.75;;
51384;SDS011;37478;55.682;37.462;2024-02-23T07:17:29;51.25;;;18.90;;
51384;SDS011;37478;55.682;37.462;2024-02-23T07:19:55;54.95;;;20.58;;
51384;SDS011;37478;55.682;37.462;2024-02-23T07:22:28;51.80;;;20.98;;
51384;SDS011;37478;55.682;37.462;2024-02-23T07:24:53;48.63;;;18.83;;
51384;SDS011;37478;55.682;37.462;2024-02-23T07:27:18;53.75;;;20.63;;
51384;SDS011;37478;55.682;37.462;2024-02-23T07:29:44;48.50;;;19.73;;
51384;SDS011;37478;55.682;37.462;2024-02-23T07:32:09;53.25;;;21.55;;
51384;SDS011;37478;55.682;37.462;2024-02-23T07:34:35;41.67;;;19.25;;
51384;SDS011;37478;55.682;37.462;2024-02-23T07:37:00;48.90;;;19.17;;
51384;SDS011;37478;55.682;37.462;2024-02-23T07:39:26;48.30;;;20.75;;
51384;SDS011;37478;55.682;37.462;2024-02-23T07:41:51;50.22;;;20.92;;
51384;SDS011;37478;55.682;37.462;2024-02-23T07:44:17;48.28;;;19.23;;
51384;SDS011;37478;55.682;37.462;2024-02-23T07:46:42;48.03;;;19.55;;
51384;SDS011;37478;55.682;37.462;2024-02-23T07:49:07;52.00;;;19.60;;
51384;SDS011;37478;55.682;37.462;2024-02-23T07:51:33;47.67;;;20.75;;
51384;SDS011;37478;55.682;37.462;2024-02-23T07:53:58;55.45;;;20.75;;
51384;SDS011;37478;55.682;37.462;2024-02-23T07:56:23;51.00;;;19.13;;
51384;SDS011;37478;55.682;37.462;2024-02-23T07:58:49;53.13;;;19.08;;
51384;SDS011;37478;55.682;37.462;2024-02-23T08:01:14;43.67;;;18.10;;
51384;SDS011;37478;55.682;37.462;2024-02-23T08:03:40;46.63;;;18.13;;
51384;SDS011;37478;55.682;37.462;2024-02-23T08:06:05;50.13;;;18.70;;
51384;SDS011;37478;55.682;37.462;2024-02-23T08:08:33;46.33;;;19.85;;
51384;SDS011;37478;55.682;37.462;2024-02-23T08:11:02;52.50;;;18.02;;
51384;SDS011;37478;55.682;37.462;2024-02-23T08:13:27;51.50;;;21.05;;
51384;SDS011;37478;55.682;37.462;2024-02-23T08:15:53;38.75;;;17.75;;
51384;SDS011;37478;55.682;37.462;2024-02-23T08:18:18;46.05;;;19.02;;
51384;SDS011;37478;55.682;37.462;2024-02-23T08:20:43;45.03;;;20.30;;
51384;SDS011;37478;55.682;37.462;2024-02-23T08:23:09;49.97;;;18.92;;
51384;SDS011;37478;55.682;37.462;2024-02-23T08:25:34;42.92;;;20.27;;
51384;SDS011;37478;55.682;37.462;2024-02-23T08:28:03;45.40;;;19.17;;
51384;SDS011;37478;55.682;37.462;2024-02-23T08:30:31;48.55;;;17.67;;
51384;SDS011;37478;55.682;37.462;2024-02-23T08:32:57;37.17;;;17.50;;
51384;SDS011;37478;55.682;37.462;2024-02-23T08:35:22;41.63;;;18.52;;
51384;SDS011;37478;55.682;37.462;2024-02-23T08:37:47;35.13;;;15.80;;
51384;SDS011;37478;55.682;37.462;2024-02-23T08:40:13;40.50;;;17.38;;
51384;SDS011;37478;55.682;37.462;2024-02-23T08:42:38;47.35;;;18.80;;
51384;SDS011;37478;55.682;37.462;2024-02-23T08:45:03;48.63;;;19.25;;
51384;SDS011;37478;55.682;37.462;2024-02-23T08:47:29;43.08;;;17.73;;
51384;SDS011;37478;55.682;37.462;2024-02-23T08:49:58;43.08;;;19.55;;
51384;SDS011;37478;55.682;37.462;2024-02-23T08:52:23;45.67;;;18.63;;
51384;SDS011;37478;55.682;37.462;2024-02-23T08:54:48;51.08;;;19.92;;
51384;SDS011;37478;55.682;37.462;2024-02-23T08:57:14;34.80;;;17.13;;
51384;SDS011;37478;55.682;37.462;2024-02-23T08:59:44;45.70;;;19.45;;
51384;SDS011;37478;55.682;37.462;2024-02-23T09:02:09;41.33;;;16.25;;
51384;SDS011;37478;55.682;37.462;2024-02-23T09:04:35;46.78;;;20.83;;
51384;SDS011;37478;55.682;37.462;2024-02-23T09:07:01;54.15;;;21.30;;
51384;SDS011;37478;55.682;37.462;2024-02-23T09:09:26;45.60;;;18.48;;
51384;SDS011;37478;55.682;37.462;2024-02-23T09:11:52;37.67;;;17.15;;
51384;SDS011;37478;55.682;37.462;2024-02-23T09:14:17;38.15;;;17.73;;
51384;SDS011;37478;55.682;37.462;2024-02-23T09:16:42;45.25;;;17.58;;
51384;SDS011;37478;55.682;37.462;2024-02-23T09:19:08;42.88;;;18.20;;
51384;SDS011;37478;55.682;37.462;2024-02-23T09:21:33;47.35;;;19.80;;
51384;SDS011;37478;55.682;37.462;2024-02-23T09:23:58;40.35;;;17.52;;
51384;SDS011;37478;55.682;37.462;2024-02-23T09:26:24;35.50;;;17.15;;
51384;SDS011;37478;55.682;37.462;2024-02-23T09:28:49;44.72;;;18.23;;
51384;SDS011;37478;55.682;37.462;2024-02-23T09:31:15;36.53;;;18.10;;
51384;SDS011;37478;55.682;37.462;2024-02-23T09:33:40;45.22;;;17.85;;
51384;SDS011;37478;55.682;37.462;2024-02-23T09:36:06;47.40;;;17.25;;
51384;SDS011;37478;55.682;37.462;2024-02-23T09:38:31;38.45;;;18.48;;
51384;SDS011;37478;55.682;37.462;2024-02-23T09:40:57;40.10;;;16.67;;
51384;SDS011;37478;55.682;37.462;2024-02-23T09:43:23;44.13;;;19.50;;
51384;SDS011;37478;55.682;37.462;2024-02-23T09:45:53;34.42;;;17.05;;
51384;SDS011;37478;55.682;37.462;2024-02-23T09:48:19;32.47;;;15.63;;
51384;SDS011;37478;55.682;37.462;2024-02-23T09:50:46;39.53;;;16.67;;
51384;SDS011;37478;55.682;37.462;2024-02-23T09:53:12;37.90;;;16.75;;
51384;SDS011;37478;55.682;37.462;2024-02-23T09:55:45;41.92;;;17.55;;
51384;SDS011;37478;55.682;37.462;2024-02-23T09:58:13;45.67;;;18.17;;
51384;SDS011;37478;55.682;37.462;2024-02-23T10:00:41;41.40;;;15.85;;
51384;SDS011;37478;55.682;37.462;2024-02-23T10:03:06;31.77;;;14.05;;
51384;SDS011;37478;55.682;37.462;2024-02-23T10:05:31;40.88;;;17.73;;
51384;SDS011;37478;55.682;37.462;2024-02-23T10:07:57;50.75;;;21.77;;
51384;SDS011;37478;55.682;37.462;2024-02-23T10:10:32;37.15;;;15.70;;
51384;SDS011;37478;55.682;37.462;2024-02-23T10:12:58;46.42;;;16.70;;
51384;SDS011;37478;55.682;37.462;2024-02-23T10:15:23;34.83;;;16.67;;
51384;SDS011;37478;55.682;37.462;2024-02-23T10:17:49;40.40;;;15.88;;
51384;SDS011;37478;55.682;37.462;2024-02-23T10:20:14;38.10;;;16.08;;
51384;SDS011;37478;55.682;37.462;2024-02-23T10:22:40;40.08;;;17.88;;
51384;SDS011;37478;55.682;37.462;2024-02-23T10:25:05;45.47;;;16.23;;
51384;SDS011;37478;55.682;37.462;2024-02-23T10:27:46;35.20;;;16.63;;
51384;SDS011;37478;55.682;37.462;2024-02-23T10:30:11;37.10;;;15.90;;
51384;SDS011;37478;55.682;37.462;2024-02-23T10:32:38;40.10;;;16.88;;
51384;SDS011;37478;55.682;37.462;2024-02-23T10:35:06;36.78;;;16.95;;
51384;SDS011;37478;55.682;37.462;2024-02-23T10:37:33;37.05;;;15.23;;
51384;SDS011;37478;55.682;37.462;2024-02-23T10:39:59;38.33;;;17.38;;
51384;SDS011;37478;55.682;37.462;2024-02-23T10:42:25;37.75;;;14.95;;
51384;SDS011;37478;55.682;37.462;2024-02-23T10:44:54;38.42;;;16.58;;
51384;SDS011;37478;55.682;37.462;2024-02-23T10:47:20;38.58;;;16.45;;
51384;SDS011;37478;55.682;37.462;2024-02-23T10:49:46;42.17;;;15.82;;
51384;SDS011;37478;55.682;37.462;2024-02-23T10:52:12;38.60;;;15.95;;
51384;SDS011;37478;55.682;37.462;2024-02-23T10:54:40;38.53;;;17.10;;
51384;SDS011;37478;55.682;37.462;2024-02-23T10:57:05;48.72;;;16.75;;
51384;SDS011;37478;55.682;37.462;2024-02-23T10:59:31;36.22;;;16.08;;
51384;SDS011;37478;55.682;37.462;2024-02-23T11:01:56;37.78;;;16.95;;
51384;SDS011;37478;55.682;37.462;2024-02-23T11:04:24;36.45;;;15.60;;
51384;SDS011;37478;55.682;37.462;2024-02-23T11:06:53;43.53;;;19.10;;
51384;SDS011;37478;55.682;37.462;2024-02-23T11:09:22;40.22;;;17.60;;
51384;SDS011;37478;55.682;37.462;2024-02-23T11:11:55;41.30;;;18.17;;
51384;SDS011;37478;55.682;37.462;2024-02-23T11:14:30;39.70;;;16.98;;
51384;SDS011;37478;55.682;37.462;2024-02-23T11:16:57;43.15;;;19.92;;
51384;SDS011;37478;55.682;37.462;2024-02-23T11:19:31;33.42;;;14.05;;
51384;SDS011;37478;55.682;37.462;2024-02-23T11:21:57;41.20;;;16.50;;
51384;SDS011;37478;55.682;37.462;2024-02-23T11:24:25;38.80;;;16.95;;
51384;SDS011;37478;55.682;37.462;2024-02-23T11:26:50;47.80;;;18.52;;
51384;SDS011;37478;55.682;37.462;2024-02-23T11:29:21;50.88;;;18.17;;
51384;SDS011;37478;55.682;37.462;2024-02-23T11:31:46;44.92;;;18.17;;
51384;SDS011;37478;55.682;37.462;2024-02-23T11:34:12;41.22;;;16.40;;
51384;SDS011;37478;55.682;37.462;2024-02-23T11:36:38;41.75;;;16.35;;
51384;SDS011;37478;55.682;37.462;2024-02-23T11:39:03;36.85;;;17.48;;
51384;SDS011;37478;55.682;37.462;2024-02-23T11:41:30;44.65;;;19.90;;
51384;SDS011;37478;55.682;37.462;2024-02-23T11:43:56;43.25;;;19.60;;
51384;SDS011;37478;55.682;37.462;2024-02-23T11:46:22;46.95;;;18.20;;
51384;SDS011;37478;55.682;37.462;2024-02-23T11:48:47;46.33;;;18.90;;
51384;SDS011;37478;55.682;37.462;2024-02-23T11:51:18;50.90;;;19.58;;
51384;SDS011;37478;55.682;37.462;2024-02-23T11:53:44;51.40;;;19.75;;
51384;SDS011;37478;55.682;37.462;2024-02-23T11:56:10;52.80;;;20.77;;
51384;SDS011;37478;55.682;37.462;2024-02-23T11:58:36;49.60;;;18.92;;
51384;SDS011;37478;55.682;37.462;2024-02-23T12:01:02;54.92;;;21.67;;
51384;SDS011;37478;55.682;37.462;2024-02-23T12:03:30;40.85;;;18.08;;
51384;SDS011;37478;55.682;37.462;2024-02-23T12:05:57;51.17;;;22.10;;
51384;SDS011;37478;55.682;37.462;2024-02-23T12:08:23;45.00;;;17.02;;
51384;SDS011;37478;55.682;37.462;2024-02-23T12:10:49;45.20;;;17.73;;
51384;SDS011;37478;55.682;37.462;2024-02-23T12:13:14;48.75;;;19.10;;
51384;SDS011;37478;55.682;37.462;2024-02-23T12:15:42;52.60;;;19.27;;
51384;SDS011;37478;55.682;37.462;2024-02-23T12:18:16;57.95;;;23.77;;
51384;SDS011;37478;55.682;37.462;2024-02-23T12:20:41;49.75;;;18.98;;
51384;SDS011;37478;55.682;37.462;2024-02-23T12:23:07;50.53;;;20.45;;
51384;SDS011;37478;55.682;37.462;2024-02-23T12:25:33;57.97;;;20.85;;
51384;SDS011;37478;55.682;37.462;2024-02-23T12:27:58;55.72;;;22.10;;
51384;SDS011;37478;55.682;37.462;2024-02-23T12:30:25;48.20;;;20.67;;
51384;SDS011;37478;55.682;37.462;2024-02-23T12:32:51;51.55;;;20.33;;
51384;SDS011;37478;55.682;37.462;2024-02-23T12:35:17;42.50;;;20.88;;
51384;SDS011;37478;55.682;37.462;2024-02-23T12:37:43;51.33;;;21.05;;
51384;SDS011;37478;55.682;37.462;2024-02-23T12:40:09;51.75;;;21.02;;
51384;SDS011;37478;55.682;37.462;2024-02-23T12:42:34;48.45;;;20.98;;
51384;SDS011;37478;55.682;37.462;2024-02-23T12:45:00;49.05;;;20.92;;
51384;SDS011;37478;55.682;37.462;2024-02-23T12:47:25;57.47;;;20.92;;
51384;SDS011;37478;55.682;37.462;2024-02-23T12:49:51;56.00;;;23.13;;
51384;SDS011;37478;55.682;37.462;2024-02-23T12:52:16;53.72;;;19.45;;
51384;SDS011;37478;55.682;37.462;2024-02-23T12:54:41;47.60;;;21.58;;
51384;SDS011;37478;55.682;37.462;2024-02-23T12:57:07;40.40;;;18.55;;
51384;SDS011;37478;55.682;37.462;2024-02-23T12:59:32;49.50;;;20.52;;
51384;SDS011;37478;55.682;37.462;2024-02-23T13:01:57;58.70;;;23.38;;
51384;SDS011;37478;55.682;37.462;2024-02-23T13:04:23;58.50;;;19.48;;
51384;SDS011;37478;55.682;37.462;2024-02-23T13:06:48;53.08;;;22.70;;
51384;SDS011;37478;55.682;37.462;2024-02-23T13:09:14;53.33;;;22.52;;
51384;SDS011;37478;55.682;37.462;2024-02-23T13:11:39;62.85;;;22.95;;
51384;SDS011;37478;55.682;37.462;2024-02-23T13:14:05;57.72;;;23.70;;
51384;SDS011;37478;55.682;37.462;2024-02-23T13:16:31;48.40;;;18.90;;
51384;SDS011;37478;55.682;37.462;2024-02-23T13:18:56;59.38;;;23.65;;
51384;SDS011;37478;55.682;37.462;2024-02-23T13:21:21;72.32;;;24.77;;
51384;SDS011;37478;55.682;37.462;2024-02-23T13:23:47;67.82;;;22.90;;
51384;SDS011;37478;55.682;37.462;2024-02-23T13:26:12;63.17;;;22.27;;
51384;SDS011;37478;55.682;37.462;2024-02-23T13:28:46;55.08;;;21.63;;
51384;SDS011;37478;55.682;37.462;2024-02-23T13:31:12;63.28;;;24.02;;
51384;SDS011;37478;55.682;37.462;2024-02-23T13:33:38;60.08;;;19.50;;
51384;SDS011;37478;55.682;37.462;2024-02-23T13:36:04;66.10;;;22.63;;
51384;SDS011;37478;55.682;37.462;2024-02-23T13:38:29;57.50;;;20.45;;
51384;SDS011;37478;55.682;37.462;2024-02-23T13:40:55;64.25;;;23.92;;
51384;SDS011;37478;55.682;37.462;2024-02-23T13:43:20;65.25;;;23.92;;
51384;SDS011;37478;55.682;37.462;2024-02-23T13:45:50;56.55;;;20.92;;
51384;SDS011;37478;55.682;37.462;2024-02-23T13:48:19;51.05;;;23.48;;
51384;SDS011;37478;55.682;37.462;2024-02-23T13:50:45;60.13;;;21.75;;
51384;SDS011;37478;55.682;37.462;2024-02-23T13:53:11;59.92;;;22.95;;
51384;SDS011;37478;55.682;37.462;2024-02-23T13:55:37;57.78;;;23.30;;
51384;SDS011;37478;55.682;37.462;2024-02-23T13:58:02;62.40;;;24.35;;
51384;SDS011;37478;55.682;37.462;2024-02-23T14:00:28;58.95;;;25.60;;
51384;SDS011;37478;55.682;37.462;2024-02-23T14:02:53;56.35;;;22.55;;